sensor_id;sensor_type;location;lat;lon;timestamp;P1;durP1;ratioP1;P2;durP2;ratioP2
60088;SDS011;45961;53.574;55.878;2023-05-17T00:00:35;6.53;;;4.43;;
60088;SDS011;45961;53.574;55.878;2023-05-17T00:01:36;8.68;;;5.30;;
60088;SDS011;45961;53.574;55.878;2023-05-17T00:02:37;9.27;;;5.13;;
60088;SDS011;45961;53.574;55.878;2023-05-17T00:03:38;12.90;;;5.20;;
60088;SDS011;45961;53.574;55.878;2023-05-17T00:04:39;7.28;;;5.00;;
60088;SDS011;45961;53.574;55.878;2023-05-17T00:05:40;10.95;;;4.82;;
60088;SDS011;45961;53.574;55.878;2023-05-17T00:06:41;12.30;;;5.60;;
60088;SDS011;45961;53.574;55.878;2023-05-17T00:07:42;7.68;;;5.60;;
60088;SDS011;45961;53.574;55.878;2023-05-17T00:08:43;12.13;;;6.07;;
60088;SDS011;45961;53.574;55.878;2023-05-17T00:09:44;11.68;;;5.75;;
60088;SDS011;45961;53.574;55.878;2023-05-17T00:10:45;14.90;;;5.63;;
60088;SDS011;45961;53.574;55.878;2023-05-17T00:11:46;11.98;;;6.18;;
60088;SDS011;45961;53.574;55.878;2023-05-17T00:12:47;9.40;;;5.93;;
60088;SDS011;45961;53.574;55.878;2023-05-17T00:13:48;11.02;;;6.32;;
60088;SDS011;45961;53.574;55.878;2023-05-17T00:14:49;11.73;;;6.18;;
60088;SDS011;45961;53.574;55.878;2023-05-17T00:15:50;8.65;;;5.47;;
60088;SDS011;45961;53.574;55.878;2023-05-17T00:16:51;9.82;;;6.13;;
60088;SDS011;45961;53.574;55.878;2023-05-17T00:18:53;8.75;;;5.28;;
60088;SDS011;45961;53.574;55.878;2023-05-17T00:19:54;9.73;;;5.95;;
60088;SDS011;45961;53.574;55.878;2023-05-17T00:20:55;7.80;;;6.00;;
60088;SDS011;45961;53.574;55.878;2023-05-17T00:22:57;9.30;;;5.53;;
60088;SDS011;45961;53.574;55.878;2023-05-17T00:23:58;11.93;;;6.20;;
60088;SDS011;45961;53.574;55.878;2023-05-17T00:24:59;12.00;;;6.18;;
60088;SDS011;45961;53.574;55.878;2023-05-17T00:26:00;10.55;;;6.07;;
60088;SDS011;45961;53.574;55.878;2023-05-17T00:27:01;9.90;;;6.10;;
60088;SDS011;45961;53.574;55.878;2023-05-17T00:28:02;11.23;;;5.80;;
60088;SDS011;45961;53.574;55.878;2023-05-17T00:29:03;9.18;;;5.97;;
60088;SDS011;45961;53.574;55.878;2023-05-17T00:30:04;8.90;;;5.75;;
60088;SDS011;45961;53.574;55.878;2023-05-17T00:31:06;10.30;;;5.85;;
60088;SDS011;45961;53.574;55.878;2023-05-17T00:32:08;12.13;;;6.28;;
60088;SDS011;45961;53.574;55.878;2023-05-17T00:33:08;10.27;;;5.88;;
60088;SDS011;45961;53.574;55.878;2023-05-17T00:34:10;11.10;;;5.90;;
60088;SDS011;45961;53.574;55.878;2023-05-17T00:35:11;11.35;;;5.85;;
60088;SDS011;45961;53.574;55.878;2023-05-17T00:36:12;8.20;;;5.75;;
60088;SDS011;45961;53.574;55.878;2023-05-17T00:37:13;11.82;;;6.05;;
60088;SDS011;45961;53.574;55.878;2023-05-17T00:38:14;9.27;;;5.82;;
60088;SDS011;45961;53.574;55.878;2023-05-17T00:39:15;9.30;;;5.47;;
60088;SDS011;45961;53.574;55.878;2023-05-17T00:40:16;9.13;;;5.43;;
60088;SDS011;45961;53.574;55.878;2023-05-17T00:41:17;8.80;;;5.63;;
60088;SDS011;45961;53.574;55.878;2023-05-17T00:42:19;7.40;;;5.05;;
60088;SDS011;45961;53.574;55.878;2023-05-17T00:43:21;12.45;;;5.93;;
60088;SDS011;45961;53.574;55.878;2023-05-17T00:44:22;12.75;;;6.25;;
60088;SDS011;45961;53.574;55.878;2023-05-17T00:45:23;12.55;;;7.50;;
60088;SDS011;45961;53.574;55.878;2023-05-17T00:46:24;11.20;;;5.75;;
60088;SDS011;45961;53.574;55.878;2023-05-17T00:47:25;8.50;;;5.13;;
60088;SDS011;45961;53.574;55.878;2023-05-17T00:48:27;7.97;;;5.45;;
60088;SDS011;45961;53.574;55.878;2023-05-17T00:49:28;8.20;;;5.45;;
60088;SDS011;45961;53.574;55.878;2023-05-17T00:51:31;11.15;;;6.50;;
60088;SDS011;45961;53.574;55.878;2023-05-17T00:52:33;9.02;;;5.50;;
60088;SDS011;45961;53.574;55.878;2023-05-17T00:53:35;10.27;;;6.05;;
60088;SDS011;45961;53.574;55.878;2023-05-17T00:54:38;10.20;;;5.85;;
60088;SDS011;45961;53.574;55.878;2023-05-17T00:55:40;11.18;;;6.07;;
60088;SDS011;45961;53.574;55.878;2023-05-17T00:56:43;12.30;;;5.30;;
60088;SDS011;45961;53.574;55.878;2023-05-17T00:58:45;10.80;;;5.78;;
60088;SDS011;45961;53.574;55.878;2023-05-17T00:59:46;10.20;;;6.03;;
60088;SDS011;45961;53.574;55.878;2023-05-17T01:00:49;9.27;;;5.03;;
60088;SDS011;45961;53.574;55.878;2023-05-17T01:01:50;8.80;;;5.57;;
60088;SDS011;45961;53.574;55.878;2023-05-17T01:02:52;9.65;;;5.55;;
60088;SDS011;45961;53.574;55.878;2023-05-17T01:03:53;9.02;;;5.20;;
60088;SDS011;45961;53.574;55.878;2023-05-17T01:04:54;11.68;;;4.97;;
60088;SDS011;45961;53.574;55.878;2023-05-17T01:05:55;7.75;;;4.50;;
60088;SDS011;45961;53.574;55.878;2023-05-17T01:06:57;7.95;;;5.30;;
60088;SDS011;45961;53.574;55.878;2023-05-17T01:07:58;7.90;;;4.68;;
60088;SDS011;45961;53.574;55.878;2023-05-17T01:08:59;8.40;;;4.95;;
60088;SDS011;45961;53.574;55.878;2023-05-17T01:10:00;7.60;;;4.90;;
60088;SDS011;45961;53.574;55.878;2023-05-17T01:11:13;10.18;;;5.10;;
60088;SDS011;45961;53.574;55.878;2023-05-17T01:12:49;6.82;;;5.13;;
60088;SDS011;45961;53.574;55.878;2023-05-17T01:15:30;7.82;;;4.72;;
60088;SDS011;45961;53.574;55.878;2023-05-17T01:16:37;8.50;;;5.45;;
60088;SDS011;45961;53.574;55.878;2023-05-17T01:18:53;7.68;;;5.05;;
60088;SDS011;45961;53.574;55.878;2023-05-17T01:20:08;13.32;;;5.70;;
60088;SDS011;45961;53.574;55.878;2023-05-17T01:21:14;10.27;;;5.00;;
60088;SDS011;45961;53.574;55.878;2023-05-17T01:24:32;9.50;;;5.35;;
60088;SDS011;45961;53.574;55.878;2023-05-17T01:25:41;10.52;;;5.60;;
60088;SDS011;45961;53.574;55.878;2023-05-17T01:26:52;7.93;;;5.07;;
60088;SDS011;45961;53.574;55.878;2023-05-17T01:27:55;9.57;;;5.75;;
60088;SDS011;45961;53.574;55.878;2023-05-17T01:28:59;7.72;;;5.28;;
60088;SDS011;45961;53.574;55.878;2023-05-17T01:30:02;10.05;;;5.10;;
60088;SDS011;45961;53.574;55.878;2023-05-17T01:31:04;7.97;;;5.10;;
60088;SDS011;45961;53.574;55.878;2023-05-17T01:32:07;11.45;;;5.28;;
60088;SDS011;45961;53.574;55.878;2023-05-17T01:34:09;8.37;;;4.93;;
60088;SDS011;45961;53.574;55.878;2023-05-17T01:35:10;7.70;;;5.20;;
60088;SDS011;45961;53.574;55.878;2023-05-17T01:37:12;8.20;;;5.03;;
60088;SDS011;45961;53.574;55.878;2023-05-17T01:38:14;8.95;;;4.80;;
60088;SDS011;45961;53.574;55.878;2023-05-17T01:39:15;7.70;;;5.60;;
60088;SDS011;45961;53.574;55.878;2023-05-17T01:40:16;8.73;;;5.30;;
60088;SDS011;45961;53.574;55.878;2023-05-17T01:42:40;6.97;;;4.82;;
60088;SDS011;45961;53.574;55.878;2023-05-17T01:43:46;9.02;;;4.97;;
60088;SDS011;45961;53.574;55.878;2023-05-17T01:46:27;12.93;;;4.88;;
60088;SDS011;45961;53.574;55.878;2023-05-17T01:49:17;13.38;;;5.20;;
60088;SDS011;45961;53.574;55.878;2023-05-17T01:50:24;7.38;;;5.32;;
60088;SDS011;45961;53.574;55.878;2023-05-17T01:51:29;9.98;;;4.57;;
60088;SDS011;45961;53.574;55.878;2023-05-17T01:52:36;11.07;;;5.45;;
60088;SDS011;45961;53.574;55.878;2023-05-17T01:53:47;8.23;;;5.03;;
60088;SDS011;45961;53.574;55.878;2023-05-17T01:56:07;14.88;;;5.53;;
60088;SDS011;45961;53.574;55.878;2023-05-17T01:57:14;9.10;;;5.70;;
60088;SDS011;45961;53.574;55.878;2023-05-17T01:58:20;12.73;;;6.40;;
60088;SDS011;45961;53.574;55.878;2023-05-17T01:59:24;11.00;;;6.40;;
60088;SDS011;45961;53.574;55.878;2023-05-17T02:00:27;11.93;;;6.38;;
60088;SDS011;45961;53.574;55.878;2023-05-17T02:01:30;9.52;;;5.93;;
60088;SDS011;45961;53.574;55.878;2023-05-17T02:02:32;14.68;;;6.35;;
60088;SDS011;45961;53.574;55.878;2023-05-17T02:03:33;12.55;;;6.47;;
60088;SDS011;45961;53.574;55.878;2023-05-17T02:04:34;10.55;;;5.82;;
60088;SDS011;45961;53.574;55.878;2023-05-17T02:05:36;9.50;;;5.80;;
60088;SDS011;45961;53.574;55.878;2023-05-17T02:06:37;16.27;;;6.22;;
60088;SDS011;45961;53.574;55.878;2023-05-17T02:07:38;12.52;;;6.25;;
60088;SDS011;45961;53.574;55.878;2023-05-17T02:08:39;11.93;;;5.20;;
60088;SDS011;45961;53.574;55.878;2023-05-17T02:09:40;11.80;;;5.72;;
60088;SDS011;45961;53.574;55.878;2023-05-17T02:10:41;11.18;;;6.40;;
60088;SDS011;45961;53.574;55.878;2023-05-17T02:11:42;8.20;;;5.43;;
60088;SDS011;45961;53.574;55.878;2023-05-17T02:12:43;12.75;;;6.53;;
60088;SDS011;45961;53.574;55.878;2023-05-17T02:13:45;15.05;;;6.63;;
60088;SDS011;45961;53.574;55.878;2023-05-17T02:14:46;11.25;;;6.75;;
60088;SDS011;45961;53.574;55.878;2023-05-17T02:15:47;17.40;;;6.63;;
60088;SDS011;45961;53.574;55.878;2023-05-17T02:16:48;15.50;;;7.50;;
60088;SDS011;45961;53.574;55.878;2023-05-17T02:17:50;15.18;;;7.30;;
60088;SDS011;45961;53.574;55.878;2023-05-17T02:19:52;14.60;;;7.85;;
60088;SDS011;45961;53.574;55.878;2023-05-17T02:20:53;13.25;;;7.75;;
60088;SDS011;45961;53.574;55.878;2023-05-17T02:21:57;19.08;;;7.75;;
60088;SDS011;45961;53.574;55.878;2023-05-17T02:22:58;16.17;;;8.40;;
60088;SDS011;45961;53.574;55.878;2023-05-17T02:24:00;12.52;;;7.07;;
60088;SDS011;45961;53.574;55.878;2023-05-17T02:25:01;11.32;;;7.72;;
60088;SDS011;45961;53.574;55.878;2023-05-17T02:26:02;14.15;;;7.15;;
60088;SDS011;45961;53.574;55.878;2023-05-17T02:27:03;20.10;;;7.03;;
60088;SDS011;45961;53.574;55.878;2023-05-17T02:28:05;14.82;;;6.80;;
60088;SDS011;45961;53.574;55.878;2023-05-17T02:29:09;12.88;;;6.07;;
60088;SDS011;45961;53.574;55.878;2023-05-17T02:30:11;16.63;;;7.90;;
60088;SDS011;45961;53.574;55.878;2023-05-17T02:31:13;14.23;;;6.63;;
60088;SDS011;45961;53.574;55.878;2023-05-17T02:32:15;16.52;;;6.57;;
60088;SDS011;45961;53.574;55.878;2023-05-17T02:33:18;15.10;;;6.97;;
60088;SDS011;45961;53.574;55.878;2023-05-17T02:34:19;11.27;;;6.07;;
60088;SDS011;45961;53.574;55.878;2023-05-17T02:35:23;13.52;;;6.82;;
60088;SDS011;45961;53.574;55.878;2023-05-17T02:36:24;14.88;;;7.18;;
60088;SDS011;45961;53.574;55.878;2023-05-17T02:37:25;10.98;;;5.93;;
60088;SDS011;45961;53.574;55.878;2023-05-17T02:38:27;14.25;;;6.05;;
60088;SDS011;45961;53.574;55.878;2023-05-17T02:39:28;13.23;;;5.75;;
60088;SDS011;45961;53.574;55.878;2023-05-17T02:40:29;10.35;;;5.93;;
60088;SDS011;45961;53.574;55.878;2023-05-17T02:41:30;12.30;;;6.80;;
60088;SDS011;45961;53.574;55.878;2023-05-17T02:42:31;12.60;;;5.75;;
60088;SDS011;45961;53.574;55.878;2023-05-17T02:43:33;14.73;;;8.23;;
60088;SDS011;45961;53.574;55.878;2023-05-17T02:44:33;13.48;;;5.82;;
60088;SDS011;45961;53.574;55.878;2023-05-17T02:45:35;14.98;;;5.20;;
60088;SDS011;45961;53.574;55.878;2023-05-17T02:47:39;10.50;;;5.82;;
60088;SDS011;45961;53.574;55.878;2023-05-17T02:48:41;17.30;;;7.07;;
60088;SDS011;45961;53.574;55.878;2023-05-17T02:49:42;22.35;;;7.90;;
60088;SDS011;45961;53.574;55.878;2023-05-17T02:51:44;15.27;;;6.85;;
60088;SDS011;45961;53.574;55.878;2023-05-17T02:53:46;24.33;;;7.30;;
60088;SDS011;45961;53.574;55.878;2023-05-17T02:55:48;20.00;;;8.07;;
60088;SDS011;45961;53.574;55.878;2023-05-17T02:56:49;17.92;;;10.00;;
60088;SDS011;45961;53.574;55.878;2023-05-17T02:57:51;17.27;;;8.63;;
60088;SDS011;45961;53.574;55.878;2023-05-17T02:59:54;23.88;;;9.55;;
60088;SDS011;45961;53.574;55.878;2023-05-17T03:00:56;23.92;;;10.35;;
60088;SDS011;45961;53.574;55.878;2023-05-17T03:01:57;26.50;;;11.55;;
60088;SDS011;45961;53.574;55.878;2023-05-17T03:02:58;31.85;;;11.00;;
60088;SDS011;45961;53.574;55.878;2023-05-17T03:03:59;19.00;;;9.80;;
60088;SDS011;45961;53.574;55.878;2023-05-17T03:05:00;22.95;;;11.38;;
60088;SDS011;45961;53.574;55.878;2023-05-17T03:07:05;19.73;;;10.30;;
60088;SDS011;45961;53.574;55.878;2023-05-17T03:08:06;17.60;;;9.43;;
60088;SDS011;45961;53.574;55.878;2023-05-17T03:09:07;28.40;;;10.02;;
60088;SDS011;45961;53.574;55.878;2023-05-17T03:10:09;21.63;;;9.68;;
60088;SDS011;45961;53.574;55.878;2023-05-17T03:11:15;22.77;;;10.38;;
60088;SDS011;45961;53.574;55.878;2023-05-17T03:12:17;14.90;;;9.50;;
60088;SDS011;45961;53.574;55.878;2023-05-17T03:13:18;17.98;;;9.90;;
60088;SDS011;45961;53.574;55.878;2023-05-17T03:15:21;19.92;;;9.10;;
60088;SDS011;45961;53.574;55.878;2023-05-17T03:16:22;22.30;;;10.07;;
60088;SDS011;45961;53.574;55.878;2023-05-17T03:17:25;20.10;;;8.90;;
60088;SDS011;45961;53.574;55.878;2023-05-17T03:18:27;19.08;;;10.25;;
60088;SDS011;45961;53.574;55.878;2023-05-17T03:19:28;37.40;;;11.07;;
60088;SDS011;45961;53.574;55.878;2023-05-17T03:20:29;23.67;;;11.10;;
60088;SDS011;45961;53.574;55.878;2023-05-17T03:21:30;27.35;;;12.20;;
60088;SDS011;45961;53.574;55.878;2023-05-17T03:22:31;22.70;;;11.02;;
60088;SDS011;45961;53.574;55.878;2023-05-17T03:23:33;20.83;;;10.88;;
60088;SDS011;45961;53.574;55.878;2023-05-17T03:24:36;19.00;;;9.95;;
60088;SDS011;45961;53.574;55.878;2023-05-17T03:25:37;21.48;;;11.23;;
60088;SDS011;45961;53.574;55.878;2023-05-17T03:26:38;30.83;;;12.00;;
60088;SDS011;45961;53.574;55.878;2023-05-17T03:27:41;17.75;;;10.40;;
60088;SDS011;45961;53.574;55.878;2023-05-17T03:28:42;24.38;;;11.55;;
60088;SDS011;45961;53.574;55.878;2023-05-17T03:29:44;23.38;;;11.57;;
60088;SDS011;45961;53.574;55.878;2023-05-17T03:30:45;17.25;;;10.73;;
60088;SDS011;45961;53.574;55.878;2023-05-17T03:31:47;23.70;;;10.82;;
60088;SDS011;45961;53.574;55.878;2023-05-17T03:32:48;23.92;;;9.70;;
60088;SDS011;45961;53.574;55.878;2023-05-17T03:33:49;21.33;;;10.55;;
60088;SDS011;45961;53.574;55.878;2023-05-17T03:34:52;20.70;;;10.02;;
60088;SDS011;45961;53.574;55.878;2023-05-17T03:35:53;22.98;;;10.50;;
60088;SDS011;45961;53.574;55.878;2023-05-17T03:36:54;23.02;;;10.75;;
60088;SDS011;45961;53.574;55.878;2023-05-17T03:38:57;20.70;;;9.38;;
60088;SDS011;45961;53.574;55.878;2023-05-17T03:39:58;23.98;;;9.57;;
60088;SDS011;45961;53.574;55.878;2023-05-17T03:41:00;19.95;;;9.90;;
60088;SDS011;45961;53.574;55.878;2023-05-17T03:42:02;19.23;;;9.40;;
60088;SDS011;45961;53.574;55.878;2023-05-17T03:43:05;18.92;;;10.00;;
60088;SDS011;45961;53.574;55.878;2023-05-17T03:44:06;19.85;;;10.25;;
60088;SDS011;45961;53.574;55.878;2023-05-17T03:45:08;20.92;;;10.50;;
60088;SDS011;45961;53.574;55.878;2023-05-17T03:46:11;16.80;;;10.10;;
60088;SDS011;45961;53.574;55.878;2023-05-17T03:47:12;19.52;;;10.82;;
60088;SDS011;45961;53.574;55.878;2023-05-17T03:48:14;15.77;;;8.82;;
60088;SDS011;45961;53.574;55.878;2023-05-17T03:49:15;23.42;;;10.38;;
60088;SDS011;45961;53.574;55.878;2023-05-17T03:50:16;20.05;;;9.15;;
60088;SDS011;45961;53.574;55.878;2023-05-17T03:52:18;19.27;;;10.60;;
60088;SDS011;45961;53.574;55.878;2023-05-17T03:53:20;17.73;;;9.73;;
60088;SDS011;45961;53.574;55.878;2023-05-17T03:54:21;19.42;;;9.63;;
60088;SDS011;45961;53.574;55.878;2023-05-17T03:55:23;18.20;;;8.90;;
60088;SDS011;45961;53.574;55.878;2023-05-17T03:57:26;16.65;;;9.50;;
60088;SDS011;45961;53.574;55.878;2023-05-17T03:59:28;16.37;;;9.57;;
60088;SDS011;45961;53.574;55.878;2023-05-17T04:00:29;21.05;;;9.23;;
60088;SDS011;45961;53.574;55.878;2023-05-17T04:01:34;25.83;;;10.57;;
60088;SDS011;45961;53.574;55.878;2023-05-17T04:03:37;18.93;;;9.33;;
60088;SDS011;45961;53.574;55.878;2023-05-17T04:04:39;17.98;;;8.10;;
60088;SDS011;45961;53.574;55.878;2023-05-17T04:05:41;17.17;;;9.02;;
60088;SDS011;45961;53.574;55.878;2023-05-17T04:06:42;14.82;;;7.90;;
60088;SDS011;45961;53.574;55.878;2023-05-17T04:07:44;19.45;;;7.78;;
60088;SDS011;45961;53.574;55.878;2023-05-17T04:08:46;18.17;;;8.07;;
60088;SDS011;45961;53.574;55.878;2023-05-17T04:09:49;17.05;;;8.70;;
60088;SDS011;45961;53.574;55.878;2023-05-17T04:10:50;19.17;;;8.90;;
60088;SDS011;45961;53.574;55.878;2023-05-17T04:11:51;15.95;;;8.68;;
60088;SDS011;45961;53.574;55.878;2023-05-17T04:13:13;18.77;;;9.38;;
60088;SDS011;45961;53.574;55.878;2023-05-17T04:14:14;12.05;;;7.97;;
60088;SDS011;45961;53.574;55.878;2023-05-17T04:15:15;20.23;;;8.27;;
60088;SDS011;45961;53.574;55.878;2023-05-17T04:16:17;19.98;;;8.55;;
60088;SDS011;45961;53.574;55.878;2023-05-17T04:17:18;21.98;;;9.68;;
60088;SDS011;45961;53.574;55.878;2023-05-17T04:18:22;18.08;;;9.02;;
60088;SDS011;45961;53.574;55.878;2023-05-17T04:19:23;17.02;;;9.35;;
60088;SDS011;45961;53.574;55.878;2023-05-17T04:20:24;15.02;;;8.48;;
60088;SDS011;45961;53.574;55.878;2023-05-17T04:22:26;31.57;;;9.63;;
60088;SDS011;45961;53.574;55.878;2023-05-17T04:24:29;22.35;;;8.90;;
60088;SDS011;45961;53.574;55.878;2023-05-17T04:25:31;16.48;;;8.35;;
60088;SDS011;45961;53.574;55.878;2023-05-17T04:26:32;17.45;;;8.85;;
60088;SDS011;45961;53.574;55.878;2023-05-17T04:27:34;26.90;;;9.38;;
60088;SDS011;45961;53.574;55.878;2023-05-17T04:28:35;20.75;;;9.48;;
60088;SDS011;45961;53.574;55.878;2023-05-17T04:29:37;23.90;;;9.55;;
60088;SDS011;45961;53.574;55.878;2023-05-17T04:30:41;20.10;;;8.13;;
60088;SDS011;45961;53.574;55.878;2023-05-17T04:31:46;23.88;;;8.98;;
60088;SDS011;45961;53.574;55.878;2023-05-17T04:32:49;19.90;;;9.32;;
60088;SDS011;45961;53.574;55.878;2023-05-17T04:34:51;19.80;;;9.27;;
60088;SDS011;45961;53.574;55.878;2023-05-17T04:35:53;15.68;;;8.18;;
60088;SDS011;45961;53.574;55.878;2023-05-17T04:36:55;17.35;;;8.63;;
60088;SDS011;45961;53.574;55.878;2023-05-17T04:37:57;20.17;;;9.23;;
60088;SDS011;45961;53.574;55.878;2023-05-17T04:38:59;17.60;;;9.15;;
60088;SDS011;45961;53.574;55.878;2023-05-17T04:40:03;19.17;;;9.20;;
60088;SDS011;45961;53.574;55.878;2023-05-17T04:41:07;18.67;;;9.63;;
60088;SDS011;45961;53.574;55.878;2023-05-17T04:42:10;16.80;;;8.23;;
60088;SDS011;45961;53.574;55.878;2023-05-17T04:43:17;15.80;;;8.85;;
60088;SDS011;45961;53.574;55.878;2023-05-17T04:44:18;15.30;;;8.73;;
60088;SDS011;45961;53.574;55.878;2023-05-17T04:45:19;14.82;;;9.00;;
60088;SDS011;45961;53.574;55.878;2023-05-17T04:46:20;17.77;;;9.43;;
60088;SDS011;45961;53.574;55.878;2023-05-17T04:47:21;18.95;;;9.35;;
60088;SDS011;45961;53.574;55.878;2023-05-17T04:48:23;26.52;;;10.63;;
60088;SDS011;45961;53.574;55.878;2023-05-17T04:49:26;20.65;;;9.55;;
60088;SDS011;45961;53.574;55.878;2023-05-17T04:50:28;20.10;;;10.38;;
60088;SDS011;45961;53.574;55.878;2023-05-17T04:52:34;26.17;;;10.23;;
60088;SDS011;45961;53.574;55.878;2023-05-17T04:53:36;22.83;;;10.35;;
60088;SDS011;45961;53.574;55.878;2023-05-17T04:54:42;24.73;;;9.05;;
60088;SDS011;45961;53.574;55.878;2023-05-17T04:55:43;16.45;;;10.13;;
60088;SDS011;45961;53.574;55.878;2023-05-17T04:56:45;21.58;;;9.50;;
60088;SDS011;45961;53.574;55.878;2023-05-17T04:57:54;18.02;;;7.47;;
60088;SDS011;45961;53.574;55.878;2023-05-17T04:58:55;10.05;;;6.45;;
60088;SDS011;45961;53.574;55.878;2023-05-17T04:59:56;11.90;;;5.78;;
60088;SDS011;45961;53.574;55.878;2023-05-17T05:00:58;11.02;;;6.18;;
60088;SDS011;45961;53.574;55.878;2023-05-17T05:01:59;7.85;;;6.10;;
60088;SDS011;45961;53.574;55.878;2023-05-17T05:03:00;7.88;;;5.57;;
60088;SDS011;45961;53.574;55.878;2023-05-17T05:04:04;9.82;;;7.00;;
60088;SDS011;45961;53.574;55.878;2023-05-17T05:05:10;13.05;;;6.78;;
60088;SDS011;45961;53.574;55.878;2023-05-17T05:06:13;7.82;;;5.90;;
60088;SDS011;45961;53.574;55.878;2023-05-17T05:07:16;10.85;;;5.72;;
60088;SDS011;45961;53.574;55.878;2023-05-17T05:08:18;8.85;;;5.63;;
60088;SDS011;45961;53.574;55.878;2023-05-17T05:09:20;8.02;;;6.45;;
60088;SDS011;45961;53.574;55.878;2023-05-17T05:11:22;12.57;;;6.93;;
60088;SDS011;45961;53.574;55.878;2023-05-17T05:12:24;15.63;;;7.75;;
60088;SDS011;45961;53.574;55.878;2023-05-17T05:14:28;9.65;;;6.57;;
60088;SDS011;45961;53.574;55.878;2023-05-17T05:15:30;11.95;;;7.78;;
60088;SDS011;45961;53.574;55.878;2023-05-17T05:16:34;8.88;;;7.10;;
60088;SDS011;45961;53.574;55.878;2023-05-17T05:17:36;11.82;;;7.25;;
60088;SDS011;45961;53.574;55.878;2023-05-17T05:18:39;13.32;;;6.50;;
60088;SDS011;45961;53.574;55.878;2023-05-17T05:19:41;13.75;;;7.28;;
60088;SDS011;45961;53.574;55.878;2023-05-17T05:22:46;12.57;;;7.72;;
60088;SDS011;45961;53.574;55.878;2023-05-17T05:23:47;12.05;;;7.35;;
60088;SDS011;45961;53.574;55.878;2023-05-17T05:24:49;12.23;;;7.72;;
60088;SDS011;45961;53.574;55.878;2023-05-17T05:25:51;14.50;;;8.35;;
60088;SDS011;45961;53.574;55.878;2023-05-17T05:26:52;15.75;;;8.57;;
60088;SDS011;45961;53.574;55.878;2023-05-17T05:27:54;16.30;;;8.68;;
60088;SDS011;45961;53.574;55.878;2023-05-17T05:29:56;17.80;;;9.20;;
60088;SDS011;45961;53.574;55.878;2023-05-17T05:30:58;11.52;;;7.70;;
60088;SDS011;45961;53.574;55.878;2023-05-17T05:32:02;11.70;;;7.50;;
60088;SDS011;45961;53.574;55.878;2023-05-17T05:33:05;9.70;;;7.97;;
60088;SDS011;45961;53.574;55.878;2023-05-17T05:34:06;17.92;;;9.27;;
60088;SDS011;45961;53.574;55.878;2023-05-17T05:35:08;13.32;;;9.15;;
60088;SDS011;45961;53.574;55.878;2023-05-17T05:36:12;16.05;;;8.10;;
60088;SDS011;45961;53.574;55.878;2023-05-17T05:37:13;13.63;;;8.43;;
60088;SDS011;45961;53.574;55.878;2023-05-17T05:39:15;23.10;;;9.70;;
60088;SDS011;45961;53.574;55.878;2023-05-17T05:40:17;22.75;;;10.10;;
60088;SDS011;45961;53.574;55.878;2023-05-17T05:42:19;12.23;;;7.00;;
60088;SDS011;45961;53.574;55.878;2023-05-17T05:43:22;19.08;;;8.73;;
60088;SDS011;45961;53.574;55.878;2023-05-17T05:44:23;22.88;;;9.93;;
60088;SDS011;45961;53.574;55.878;2023-05-17T05:45:25;26.13;;;11.32;;
60088;SDS011;45961;53.574;55.878;2023-05-17T05:46:30;24.35;;;10.60;;
60088;SDS011;45961;53.574;55.878;2023-05-17T05:47:32;21.17;;;9.90;;
60088;SDS011;45961;53.574;55.878;2023-05-17T05:48:33;25.05;;;10.18;;
60088;SDS011;45961;53.574;55.878;2023-05-17T05:50:35;35.03;;;21.70;;
60088;SDS011;45961;53.574;55.878;2023-05-17T05:51:41;39.40;;;21.42;;
60088;SDS011;45961;53.574;55.878;2023-05-17T05:52:42;41.03;;;29.23;;
60088;SDS011;45961;53.574;55.878;2023-05-17T05:53:43;34.35;;;22.02;;
60088;SDS011;45961;53.574;55.878;2023-05-17T05:54:44;36.22;;;22.58;;
60088;SDS011;45961;53.574;55.878;2023-05-17T05:55:49;32.45;;;25.05;;
60088;SDS011;45961;53.574;55.878;2023-05-17T05:57:53;32.55;;;22.98;;
60088;SDS011;45961;53.574;55.878;2023-05-17T05:58:54;26.08;;;11.35;;
60088;SDS011;45961;53.574;55.878;2023-05-17T05:59:56;24.67;;;13.75;;
60088;SDS011;45961;53.574;55.878;2023-05-17T06:00:57;24.40;;;11.35;;
60088;SDS011;45961;53.574;55.878;2023-05-17T06:01:59;17.35;;;9.63;;
60088;SDS011;45961;53.574;55.878;2023-05-17T06:03:03;22.52;;;11.07;;
60088;SDS011;45961;53.574;55.878;2023-05-17T06:04:05;26.73;;;10.77;;
60088;SDS011;45961;53.574;55.878;2023-05-17T06:05:06;27.35;;;20.00;;
60088;SDS011;45961;53.574;55.878;2023-05-17T06:06:08;18.13;;;11.85;;
60088;SDS011;45961;53.574;55.878;2023-05-17T06:07:09;29.90;;;11.57;;
60088;SDS011;45961;53.574;55.878;2023-05-17T06:08:11;18.73;;;11.30;;
60088;SDS011;45961;53.574;55.878;2023-05-17T06:10:13;24.80;;;10.73;;
60088;SDS011;45961;53.574;55.878;2023-05-17T06:11:14;18.05;;;9.63;;
60088;SDS011;45961;53.574;55.878;2023-05-17T06:12:15;20.95;;;11.02;;
60088;SDS011;45961;53.574;55.878;2023-05-17T06:13:17;23.75;;;10.15;;
60088;SDS011;45961;53.574;55.878;2023-05-17T06:14:18;17.27;;;11.38;;
60088;SDS011;45961;53.574;55.878;2023-05-17T06:15:19;21.15;;;10.93;;
60088;SDS011;45961;53.574;55.878;2023-05-17T06:17:21;16.33;;;9.63;;
60088;SDS011;45961;53.574;55.878;2023-05-17T06:19:23;14.97;;;8.77;;
60088;SDS011;45961;53.574;55.878;2023-05-17T06:20:24;14.85;;;8.30;;
60088;SDS011;45961;53.574;55.878;2023-05-17T06:21:25;11.90;;;8.07;;
60088;SDS011;45961;53.574;55.878;2023-05-17T06:22:26;12.20;;;8.48;;
60088;SDS011;45961;53.574;55.878;2023-05-17T06:23:27;12.25;;;9.18;;
60088;SDS011;45961;53.574;55.878;2023-05-17T06:25:29;14.73;;;9.67;;
60088;SDS011;45961;53.574;55.878;2023-05-17T06:26:30;15.38;;;9.35;;
60088;SDS011;45961;53.574;55.878;2023-05-17T06:28:33;15.68;;;9.85;;
60088;SDS011;45961;53.574;55.878;2023-05-17T06:29:34;20.42;;;10.57;;
60088;SDS011;45961;53.574;55.878;2023-05-17T06:30:35;15.80;;;10.38;;
60088;SDS011;45961;53.574;55.878;2023-05-17T06:31:36;15.93;;;9.77;;
60088;SDS011;45961;53.574;55.878;2023-05-17T06:32:37;13.77;;;9.68;;
60088;SDS011;45961;53.574;55.878;2023-05-17T06:33:38;17.02;;;10.05;;
60088;SDS011;45961;53.574;55.878;2023-05-17T06:34:39;13.85;;;9.57;;
60088;SDS011;45961;53.574;55.878;2023-05-17T06:35:40;15.75;;;10.32;;
60088;SDS011;45961;53.574;55.878;2023-05-17T06:36:41;15.68;;;10.13;;
60088;SDS011;45961;53.574;55.878;2023-05-17T06:37:42;16.33;;;10.20;;
60088;SDS011;45961;53.574;55.878;2023-05-17T06:38:43;14.65;;;9.82;;
60088;SDS011;45961;53.574;55.878;2023-05-17T06:40:45;17.27;;;9.57;;
60088;SDS011;45961;53.574;55.878;2023-05-17T06:41:46;13.10;;;9.20;;
60088;SDS011;45961;53.574;55.878;2023-05-17T06:42:51;12.68;;;9.40;;
60088;SDS011;45961;53.574;55.878;2023-05-17T06:44:53;16.30;;;10.07;;
60088;SDS011;45961;53.574;55.878;2023-05-17T06:45:54;15.85;;;10.45;;
60088;SDS011;45961;53.574;55.878;2023-05-17T06:46:55;17.55;;;10.70;;
60088;SDS011;45961;53.574;55.878;2023-05-17T06:47:56;14.80;;;10.93;;
60088;SDS011;45961;53.574;55.878;2023-05-17T06:48:57;13.57;;;11.10;;
60088;SDS011;45961;53.574;55.878;2023-05-17T06:49:58;14.07;;;10.25;;
60088;SDS011;45961;53.574;55.878;2023-05-17T06:50:59;15.63;;;11.07;;
60088;SDS011;45961;53.574;55.878;2023-05-17T06:53:03;49.45;;;37.53;;
60088;SDS011;45961;53.574;55.878;2023-05-17T06:54:04;40.08;;;30.08;;
60088;SDS011;45961;53.574;55.878;2023-05-17T06:56:07;19.08;;;15.52;;